sensor_id;sensor_type;location;lat;lon;timestamp;P1;durP1;ratioP1;P2;durP2;ratioP2
6203;SDS011;3135;42.602;23.468;2024-02-23T00:01:24;10.20;;;4.70;;
6203;SDS011;3135;42.602;23.468;2024-02-23T00:03:52;9.60;;;4.77;;
6203;SDS011;3135;42.602;23.468;2024-02-23T00:06:17;7.03;;;4.40;;
6203;SDS011;3135;42.602;23.468;2024-02-23T00:08:43;8.02;;;4.43;;
6203;SDS011;3135;42.602;23.468;2024-02-23T00:11:08;15.40;;;6.60;;
6203;SDS011;3135;42.602;23.468;2024-02-23T00:13:34;15.38;;;6.95;;
6203;SDS011;3135;42.602;23.468;2024-02-23T00:16:00;16.97;;;7.60;;
6203;SDS011;3135;42.602;23.468;2024-02-23T00:18:25;15.00;;;7.17;;
6203;SDS011;3135;42.602;23.468;2024-02-23T00:20:51;16.37;;;7.40;;
6203;SDS011;3135;42.602;23.468;2024-02-23T00:23:16;16.20;;;6.70;;
6203;SDS011;3135;42.602;23.468;2024-02-23T00:25:42;15.17;;;6.73;;
6203;SDS011;3135;42.602;23.468;2024-02-23T00:28:07;14.63;;;6.43;;
6203;SDS011;3135;42.602;23.468;2024-02-23T00:30:33;11.80;;;5.97;;
6203;SDS011;3135;42.602;23.468;2024-02-23T00:32:59;8.43;;;4.20;;
6203;SDS011;3135;42.602;23.468;2024-02-23T00:35:24;6.77;;;4.20;;
6203;SDS011;3135;42.602;23.468;2024-02-23T00:37:50;9.27;;;4.27;;
6203;SDS011;3135;42.602;23.468;2024-02-23T00:40:15;7.23;;;3.90;;
6203;SDS011;3135;42.602;23.468;2024-02-23T00:42:41;8.70;;;4.37;;
6203;SDS011;3135;42.602;23.468;2024-02-23T00:45:06;16.17;;;7.77;;
6203;SDS011;3135;42.602;23.468;2024-02-23T00:47:32;15.15;;;7.07;;
6203;SDS011;3135;42.602;23.468;2024-02-23T00:49:58;17.63;;;6.97;;
6203;SDS011;3135;42.602;23.468;2024-02-23T00:52:23;13.27;;;6.67;;
6203;SDS011;3135;42.602;23.468;2024-02-23T00:54:49;17.27;;;6.53;;
6203;SDS011;3135;42.602;23.468;2024-02-23T00:57:14;12.67;;;6.33;;
6203;SDS011;3135;42.602;23.468;2024-02-23T00:59:40;22.15;;;9.07;;
6203;SDS011;3135;42.602;23.468;2024-02-23T01:02:06;13.82;;;6.65;;
6203;SDS011;3135;42.602;23.468;2024-02-23T01:04:32;11.00;;;5.93;;
6203;SDS011;3135;42.602;23.468;2024-02-23T01:06:57;11.43;;;5.63;;
6203;SDS011;3135;42.602;23.468;2024-02-23T01:09:23;9.70;;;5.30;;
6203;SDS011;3135;42.602;23.468;2024-02-23T01:11:48;11.60;;;5.10;;
6203;SDS011;3135;42.602;23.468;2024-02-23T01:14:14;8.15;;;4.60;;
6203;SDS011;3135;42.602;23.468;2024-02-23T01:16:40;9.85;;;4.78;;
6203;SDS011;3135;42.602;23.468;2024-02-23T01:19:05;8.50;;;4.37;;
6203;SDS011;3135;42.602;23.468;2024-02-23T01:21:31;10.43;;;5.20;;
6203;SDS011;3135;42.602;23.468;2024-02-23T01:23:56;8.80;;;4.67;;
6203;SDS011;3135;42.602;23.468;2024-02-23T01:26:22;10.40;;;4.60;;
6203;SDS011;3135;42.602;23.468;2024-02-23T01:28:48;8.98;;;4.38;;
6203;SDS011;3135;42.602;23.468;2024-02-23T01:31:14;8.77;;;4.30;;
6203;SDS011;3135;42.602;23.468;2024-02-23T01:33:39;7.57;;;4.40;;
6203;SDS011;3135;42.602;23.468;2024-02-23T01:36:05;9.97;;;4.07;;
6203;SDS011;3135;42.602;23.468;2024-02-23T01:38:31;7.38;;;4.22;;
6203;SDS011;3135;42.602;23.468;2024-02-23T01:40:58;8.77;;;4.68;;
6203;SDS011;3135;42.602;23.468;2024-02-23T01:43:24;11.13;;;4.88;;
6203;SDS011;3135;42.602;23.468;2024-02-23T01:45:49;11.30;;;5.18;;
6203;SDS011;3135;42.602;23.468;2024-02-23T01:48:15;13.18;;;5.13;;
6203;SDS011;3135;42.602;23.468;2024-02-23T01:50:42;8.98;;;4.32;;
6203;SDS011;3135;42.602;23.468;2024-02-23T01:53:08;19.42;;;7.90;;
6203;SDS011;3135;42.602;23.468;2024-02-23T01:55:35;5.90;;;3.75;;
6203;SDS011;3135;42.602;23.468;2024-02-23T01:58:02;6.53;;;4.05;;
6203;SDS011;3135;42.602;23.468;2024-02-23T02:00:29;7.55;;;4.18;;
6203;SDS011;3135;42.602;23.468;2024-02-23T02:02:56;8.15;;;3.90;;
6203;SDS011;3135;42.602;23.468;2024-02-23T02:05:21;6.13;;;3.83;;
6203;SDS011;3135;42.602;23.468;2024-02-23T02:07:47;6.80;;;3.80;;
6203;SDS011;3135;42.602;23.468;2024-02-23T02:10:18;7.93;;;4.15;;
6203;SDS011;3135;42.602;23.468;2024-02-23T02:12:45;7.70;;;3.80;;
6203;SDS011;3135;42.602;23.468;2024-02-23T02:15:11;8.17;;;4.07;;
6203;SDS011;3135;42.602;23.468;2024-02-23T02:17:36;7.03;;;3.67;;
6203;SDS011;3135;42.602;23.468;2024-02-23T02:20:02;6.03;;;3.53;;
6203;SDS011;3135;42.602;23.468;2024-02-23T02:22:35;11.43;;;5.20;;
6203;SDS011;3135;42.602;23.468;2024-02-23T02:25:00;7.30;;;4.37;;
6203;SDS011;3135;42.602;23.468;2024-02-23T02:27:26;7.33;;;3.97;;
6203;SDS011;3135;42.602;23.468;2024-02-23T02:29:51;7.10;;;3.80;;
6203;SDS011;3135;42.602;23.468;2024-02-23T02:32:17;5.70;;;3.50;;
6203;SDS011;3135;42.602;23.468;2024-02-23T02:34:42;5.93;;;3.80;;
6203;SDS011;3135;42.602;23.468;2024-02-23T02:37:08;6.10;;;3.60;;
6203;SDS011;3135;42.602;23.468;2024-02-23T02:39:33;6.30;;;3.70;;
6203;SDS011;3135;42.602;23.468;2024-02-23T02:41:59;7.13;;;3.33;;
6203;SDS011;3135;42.602;23.468;2024-02-23T02:44:24;7.10;;;3.80;;
6203;SDS011;3135;42.602;23.468;2024-02-23T02:46:51;6.80;;;3.53;;
6203;SDS011;3135;42.602;23.468;2024-02-23T02:49:17;7.13;;;4.20;;
6203;SDS011;3135;42.602;23.468;2024-02-23T02:51:42;6.43;;;3.70;;
6203;SDS011;3135;42.602;23.468;2024-02-23T02:54:08;5.83;;;3.63;;
6203;SDS011;3135;42.602;23.468;2024-02-23T02:56:33;6.17;;;3.63;;
6203;SDS011;3135;42.602;23.468;2024-02-23T02:58:58;7.37;;;3.83;;
6203;SDS011;3135;42.602;23.468;2024-02-23T03:01:24;5.50;;;3.37;;
6203;SDS011;3135;42.602;23.468;2024-02-23T03:03:49;5.20;;;3.10;;
6203;SDS011;3135;42.602;23.468;2024-02-23T03:06:15;5.00;;;3.53;;
6203;SDS011;3135;42.602;23.468;2024-02-23T03:08:43;5.47;;;3.40;;
6203;SDS011;3135;42.602;23.468;2024-02-23T03:11:09;4.80;;;3.25;;
6203;SDS011;3135;42.602;23.468;2024-02-23T03:13:34;5.20;;;3.20;;
6203;SDS011;3135;42.602;23.468;2024-02-23T03:16:00;4.50;;;3.33;;
6203;SDS011;3135;42.602;23.468;2024-02-23T03:18:25;4.37;;;3.13;;
6203;SDS011;3135;42.602;23.468;2024-02-23T03:20:53;5.55;;;3.13;;
6203;SDS011;3135;42.602;23.468;2024-02-23T03:23:19;5.60;;;3.00;;
6203;SDS011;3135;42.602;23.468;2024-02-23T03:25:44;5.60;;;3.30;;
6203;SDS011;3135;42.602;23.468;2024-02-23T03:28:09;5.47;;;3.03;;
6203;SDS011;3135;42.602;23.468;2024-02-23T03:30:35;5.57;;;3.10;;
6203;SDS011;3135;42.602;23.468;2024-02-23T03:33:00;5.87;;;3.20;;
6203;SDS011;3135;42.602;23.468;2024-02-23T03:35:25;9.07;;;4.40;;
6203;SDS011;3135;42.602;23.468;2024-02-23T03:37:51;9.63;;;4.50;;
6203;SDS011;3135;42.602;23.468;2024-02-23T03:40:16;8.10;;;4.37;;
6203;SDS011;3135;42.602;23.468;2024-02-23T03:42:44;7.53;;;3.88;;
6203;SDS011;3135;42.602;23.468;2024-02-23T03:45:09;8.57;;;4.90;;
6203;SDS011;3135;42.602;23.468;2024-02-23T03:47:35;8.60;;;5.00;;
6203;SDS011;3135;42.602;23.468;2024-02-23T03:50:00;8.93;;;4.40;;
6203;SDS011;3135;42.602;23.468;2024-02-23T03:52:26;6.97;;;4.20;;
6203;SDS011;3135;42.602;23.468;2024-02-23T03:54:51;6.83;;;3.77;;
6203;SDS011;3135;42.602;23.468;2024-02-23T03:57:19;7.55;;;4.22;;
6203;SDS011;3135;42.602;23.468;2024-02-23T03:59:51;7.03;;;4.27;;
6203;SDS011;3135;42.602;23.468;2024-02-23T04:02:17;7.65;;;3.80;;
6203;SDS011;3135;42.602;23.468;2024-02-23T04:04:43;9.30;;;5.00;;
6203;SDS011;3135;42.602;23.468;2024-02-23T04:07:08;6.80;;;4.47;;
6203;SDS011;3135;42.602;23.468;2024-02-23T04:09:34;8.40;;;4.63;;
6203;SDS011;3135;42.602;23.468;2024-02-23T04:11:59;10.30;;;5.37;;
6203;SDS011;3135;42.602;23.468;2024-02-23T04:14:25;6.50;;;4.20;;
6203;SDS011;3135;42.602;23.468;2024-02-23T04:16:50;10.00;;;4.90;;
6203;SDS011;3135;42.602;23.468;2024-02-23T04:19:15;6.57;;;3.80;;
6203;SDS011;3135;42.602;23.468;2024-02-23T04:21:41;8.17;;;4.60;;
6203;SDS011;3135;42.602;23.468;2024-02-23T04:24:06;7.37;;;3.87;;
6203;SDS011;3135;42.602;23.468;2024-02-23T04:26:33;8.20;;;3.67;;
6203;SDS011;3135;42.602;23.468;2024-02-23T04:28:59;6.68;;;3.58;;
6203;SDS011;3135;42.602;23.468;2024-02-23T04:31:24;6.25;;;3.67;;
6203;SDS011;3135;42.602;23.468;2024-02-23T04:33:50;5.75;;;3.17;;
6203;SDS011;3135;42.602;23.468;2024-02-23T04:36:18;5.15;;;3.15;;
6203;SDS011;3135;42.602;23.468;2024-02-23T04:38:44;4.60;;;3.05;;
6203;SDS011;3135;42.602;23.468;2024-02-23T04:41:10;4.97;;;2.90;;
6203;SDS011;3135;42.602;23.468;2024-02-23T04:43:35;6.30;;;3.40;;
6203;SDS011;3135;42.602;23.468;2024-02-23T04:46:01;9.73;;;4.45;;
6203;SDS011;3135;42.602;23.468;2024-02-23T04:48:26;8.05;;;4.47;;
6203;SDS011;3135;42.602;23.468;2024-02-23T04:50:52;5.50;;;2.90;;
6203;SDS011;3135;42.602;23.468;2024-02-23T04:53:17;8.40;;;4.40;;
6203;SDS011;3135;42.602;23.468;2024-02-23T04:55:43;10.13;;;5.60;;
6203;SDS011;3135;42.602;23.468;2024-02-23T04:58:08;9.67;;;5.03;;
6203;SDS011;3135;42.602;23.468;2024-02-23T05:00:33;8.87;;;4.80;;
6203;SDS011;3135;42.602;23.468;2024-02-23T05:02:59;10.97;;;4.70;;
6203;SDS011;3135;42.602;23.468;2024-02-23T05:05:28;6.28;;;3.78;;
6203;SDS011;3135;42.602;23.468;2024-02-23T05:07:53;5.83;;;3.40;;
6203;SDS011;3135;42.602;23.468;2024-02-23T05:10:18;4.57;;;2.80;;
6203;SDS011;3135;42.602;23.468;2024-02-23T05:12:44;4.73;;;2.77;;
6203;SDS011;3135;42.602;23.468;2024-02-23T05:15:09;3.83;;;2.30;;
6203;SDS011;3135;42.602;23.468;2024-02-23T05:17:35;16.00;;;6.50;;
6203;SDS011;3135;42.602;23.468;2024-02-23T05:20:00;9.50;;;4.00;;
6203;SDS011;3135;42.602;23.468;2024-02-23T05:22:31;25.13;;;8.30;;
6203;SDS011;3135;42.602;23.468;2024-02-23T05:24:57;14.90;;;5.73;;
6203;SDS011;3135;42.602;23.468;2024-02-23T05:27:22;8.50;;;4.07;;
6203;SDS011;3135;42.602;23.468;2024-02-23T05:29:48;9.23;;;5.40;;
6203;SDS011;3135;42.602;23.468;2024-02-23T05:32:13;10.67;;;5.23;;
6203;SDS011;3135;42.602;23.468;2024-02-23T05:34:39;5.70;;;3.23;;
6203;SDS011;3135;42.602;23.468;2024-02-23T05:37:04;5.00;;;3.17;;
6203;SDS011;3135;42.602;23.468;2024-02-23T05:39:30;5.18;;;3.20;;
6203;SDS011;3135;42.602;23.468;2024-02-23T05:41:56;5.90;;;3.30;;
6203;SDS011;3135;42.602;23.468;2024-02-23T05:44:24;5.03;;;3.05;;
6203;SDS011;3135;42.602;23.468;2024-02-23T05:46:49;20.20;;;6.63;;
6203;SDS011;3135;42.602;23.468;2024-02-23T05:49:15;17.40;;;7.70;;
6203;SDS011;3135;42.602;23.468;2024-02-23T05:51:40;47.63;;;14.70;;
6203;SDS011;3135;42.602;23.468;2024-02-23T05:54:05;45.30;;;15.33;;
6203;SDS011;3135;42.602;23.468;2024-02-23T05:56:31;21.13;;;7.23;;
6203;SDS011;3135;42.602;23.468;2024-02-23T05:58:56;12.47;;;4.57;;
6203;SDS011;3135;42.602;23.468;2024-02-23T06:01:22;5.37;;;2.80;;
6203;SDS011;3135;42.602;23.468;2024-02-23T06:03:47;3.60;;;2.50;;
6203;SDS011;3135;42.602;23.468;2024-02-23T06:06:13;5.70;;;3.40;;
6203;SDS011;3135;42.602;23.468;2024-02-23T06:08:39;6.32;;;3.65;;
6203;SDS011;3135;42.602;23.468;2024-02-23T06:11:04;4.90;;;3.17;;
6203;SDS011;3135;42.602;23.468;2024-02-23T06:13:30;5.03;;;3.30;;
6203;SDS011;3135;42.602;23.468;2024-02-23T06:15:55;7.13;;;3.93;;
6203;SDS011;3135;42.602;23.468;2024-02-23T06:18:21;6.47;;;3.70;;
6203;SDS011;3135;42.602;23.468;2024-02-23T06:20:47;6.20;;;3.73;;
6203;SDS011;3135;42.602;23.468;2024-02-23T06:23:14;6.57;;;3.50;;
6203;SDS011;3135;42.602;23.468;2024-02-23T06:25:39;6.10;;;3.40;;
6203;SDS011;3135;42.602;23.468;2024-02-23T06:28:05;9.60;;;4.10;;
6203;SDS011;3135;42.602;23.468;2024-02-23T06:30:31;9.77;;;3.83;;
6203;SDS011;3135;42.602;23.468;2024-02-23T06:32:57;7.72;;;3.97;;
6203;SDS011;3135;42.602;23.468;2024-02-23T06:35:22;7.13;;;4.15;;
6203;SDS011;3135;42.602;23.468;2024-02-23T06:37:48;6.17;;;3.67;;
6203;SDS011;3135;42.602;23.468;2024-02-23T06:40:13;8.50;;;3.60;;
6203;SDS011;3135;42.602;23.468;2024-02-23T06:42:39;8.50;;;4.67;;
6203;SDS011;3135;42.602;23.468;2024-02-23T06:45:05;11.07;;;4.70;;
6203;SDS011;3135;42.602;23.468;2024-02-23T06:47:32;10.63;;;5.10;;
6203;SDS011;3135;42.602;23.468;2024-02-23T06:49:59;10.43;;;5.45;;
6203;SDS011;3135;42.602;23.468;2024-02-23T06:52:24;11.77;;;5.43;;
6203;SDS011;3135;42.602;23.468;2024-02-23T06:54:51;9.57;;;4.72;;
6203;SDS011;3135;42.602;23.468;2024-02-23T06:57:17;9.95;;;4.82;;
6203;SDS011;3135;42.602;23.468;2024-02-23T06:59:42;11.23;;;5.17;;
6203;SDS011;3135;42.602;23.468;2024-02-23T07:02:08;16.13;;;7.97;;
6203;SDS011;3135;42.602;23.468;2024-02-23T07:04:34;18.52;;;7.90;;
6203;SDS011;3135;42.602;23.468;2024-02-23T07:06:59;12.50;;;6.00;;
6203;SDS011;3135;42.602;23.468;2024-02-23T07:09:31;28.40;;;16.60;;
6203;SDS011;3135;42.602;23.468;2024-02-23T07:11:56;13.07;;;6.60;;
6203;SDS011;3135;42.602;23.468;2024-02-23T07:14:22;15.43;;;7.13;;
6203;SDS011;3135;42.602;23.468;2024-02-23T07:16:47;15.37;;;7.00;;
6203;SDS011;3135;42.602;23.468;2024-02-23T07:19:13;15.43;;;7.30;;
6203;SDS011;3135;42.602;23.468;2024-02-23T07:21:38;15.13;;;7.70;;
6203;SDS011;3135;42.602;23.468;2024-02-23T07:24:04;14.80;;;7.83;;
6203;SDS011;3135;42.602;23.468;2024-02-23T07:26:29;15.57;;;7.63;;
6203;SDS011;3135;42.602;23.468;2024-02-23T07:28:55;17.23;;;8.10;;
6203;SDS011;3135;42.602;23.468;2024-02-23T07:31:21;17.25;;;7.95;;
6203;SDS011;3135;42.602;23.468;2024-02-23T07:33:46;16.80;;;7.85;;
6203;SDS011;3135;42.602;23.468;2024-02-23T07:36:15;14.70;;;6.97;;
6203;SDS011;3135;42.602;23.468;2024-02-23T07:38:42;18.90;;;8.30;;
6203;SDS011;3135;42.602;23.468;2024-02-23T07:41:09;17.85;;;8.20;;
6203;SDS011;3135;42.602;23.468;2024-02-23T07:43:35;21.65;;;8.52;;
6203;SDS011;3135;42.602;23.468;2024-02-23T07:46:01;16.87;;;7.97;;
6203;SDS011;3135;42.602;23.468;2024-02-23T07:48:27;19.50;;;8.80;;
6203;SDS011;3135;42.602;23.468;2024-02-23T07:50:53;17.50;;;8.13;;
6203;SDS011;3135;42.602;23.468;2024-02-23T07:53:18;21.90;;;8.83;;
6203;SDS011;3135;42.602;23.468;2024-02-23T07:55:44;20.67;;;8.10;;
6203;SDS011;3135;42.602;23.468;2024-02-23T07:58:09;17.10;;;7.30;;
6203;SDS011;3135;42.602;23.468;2024-02-23T08:00:34;16.33;;;8.00;;
6203;SDS011;3135;42.602;23.468;2024-02-23T08:03:03;16.92;;;8.38;;
6203;SDS011;3135;42.602;23.468;2024-02-23T08:05:28;20.48;;;11.40;;
6203;SDS011;3135;42.602;23.468;2024-02-23T08:07:54;17.83;;;8.43;;
6203;SDS011;3135;42.602;23.468;2024-02-23T08:10:19;17.80;;;8.50;;
6203;SDS011;3135;42.602;23.468;2024-02-23T08:12:45;17.77;;;8.82;;
6203;SDS011;3135;42.602;23.468;2024-02-23T08:15:11;19.87;;;8.60;;
6203;SDS011;3135;42.602;23.468;2024-02-23T08:17:37;17.50;;;7.80;;
6203;SDS011;3135;42.602;23.468;2024-02-23T08:20:03;17.93;;;8.07;;
6203;SDS011;3135;42.602;23.468;2024-02-23T08:22:29;17.17;;;8.70;;
6203;SDS011;3135;42.602;23.468;2024-02-23T08:24:55;19.45;;;8.35;;
6203;SDS011;3135;42.602;23.468;2024-02-23T08:27:20;16.67;;;7.80;;
6203;SDS011;3135;42.602;23.468;2024-02-23T08:29:46;17.80;;;7.90;;
6203;SDS011;3135;42.602;23.468;2024-02-23T08:32:11;14.63;;;6.97;;
6203;SDS011;3135;42.602;23.468;2024-02-23T08:34:38;15.63;;;7.77;;
6203;SDS011;3135;42.602;23.468;2024-02-23T08:37:04;17.63;;;7.90;;
6203;SDS011;3135;42.602;23.468;2024-02-23T08:39:29;13.17;;;6.57;;
6203;SDS011;3135;42.602;23.468;2024-02-23T08:41:55;15.07;;;6.50;;
6203;SDS011;3135;42.602;23.468;2024-02-23T08:44:20;13.13;;;7.00;;
6203;SDS011;3135;42.602;23.468;2024-02-23T08:46:46;15.10;;;6.23;;
6203;SDS011;3135;42.602;23.468;2024-02-23T08:49:13;10.18;;;5.90;;
6203;SDS011;3135;42.602;23.468;2024-02-23T08:51:39;13.52;;;6.47;;
6203;SDS011;3135;42.602;23.468;2024-02-23T08:54:05;11.93;;;5.90;;
6203;SDS011;3135;42.602;23.468;2024-02-23T08:56:31;11.80;;;5.38;;
6203;SDS011;3135;42.602;23.468;2024-02-23T08:58:57;12.13;;;5.38;;
6203;SDS011;3135;42.602;23.468;2024-02-23T09:01:23;9.30;;;4.67;;
6203;SDS011;3135;42.602;23.468;2024-02-23T09:06:59;10.23;;;5.10;;
6203;SDS011;3135;42.602;23.468;2024-02-23T09:09:53;4.53;;;2.65;;
6203;SDS011;3135;42.602;23.468;2024-02-23T09:12:26;1.60;;;1.50;;
6203;SDS011;3135;42.602;23.468;2024-02-23T09:14:57;6.00;;;3.58;;
6203;SDS011;3135;42.602;23.468;2024-02-23T09:17:27;4.30;;;2.80;;
6203;SDS011;3135;42.602;23.468;2024-02-23T09:19:54;4.82;;;2.92;;
6203;SDS011;3135;42.602;23.468;2024-02-23T09:22:21;3.35;;;2.00;;
6203;SDS011;3135;42.602;23.468;2024-02-23T09:24:47;4.60;;;3.42;;
6203;SDS011;3135;42.602;23.468;2024-02-23T09:27:13;1.10;;;0.93;;
6203;SDS011;3135;42.602;23.468;2024-02-23T09:29:40;1.50;;;1.37;;
6203;SDS011;3135;42.602;23.468;2024-02-23T09:32:05;1.70;;;1.50;;
6203;SDS011;3135;42.602;23.468;2024-02-23T09:34:31;3.63;;;2.67;;
6203;SDS011;3135;42.602;23.468;2024-02-23T09:36:56;1.17;;;0.80;;
6203;SDS011;3135;42.602;23.468;2024-02-23T09:39:22;0.90;;;0.80;;
6203;SDS011;3135;42.602;23.468;2024-02-23T09:41:49;1.55;;;0.70;;
6203;SDS011;3135;42.602;23.468;2024-02-23T09:44:15;1.05;;;0.80;;
6203;SDS011;3135;42.602;23.468;2024-02-23T09:46:43;4.50;;;1.40;;
6203;SDS011;3135;42.602;23.468;2024-02-23T09:49:08;1.47;;;0.90;;
6203;SDS011;3135;42.602;23.468;2024-02-23T09:51:36;0.80;;;0.70;;
6203;SDS011;3135;42.602;23.468;2024-02-23T09:54:04;1.17;;;0.87;;
6203;SDS011;3135;42.602;23.468;2024-02-23T09:56:30;0.80;;;0.70;;
6203;SDS011;3135;42.602;23.468;2024-02-23T09:58:55;0.77;;;0.73;;
6203;SDS011;3135;42.602;23.468;2024-02-23T10:01:27;0.73;;;0.70;;
6203;SDS011;3135;42.602;23.468;2024-02-23T10:03:56;1.10;;;0.98;;
6203;SDS011;3135;42.602;23.468;2024-02-23T10:06:24;1.88;;;1.17;;
6203;SDS011;3135;42.602;23.468;2024-02-23T10:08:49;1.05;;;0.90;;
6203;SDS011;3135;42.602;23.468;2024-02-23T10:11:17;2.00;;;0.90;;
6203;SDS011;3135;42.602;23.468;2024-02-23T10:13:46;1.15;;;0.90;;
6203;SDS011;3135;42.602;23.468;2024-02-23T10:16:14;5.40;;;1.30;;
6203;SDS011;3135;42.602;23.468;2024-02-23T10:18:40;1.40;;;0.80;;
6203;SDS011;3135;42.602;23.468;2024-02-23T10:21:06;0.77;;;0.77;;
6203;SDS011;3135;42.602;23.468;2024-02-23T10:23:31;1.10;;;0.80;;
6203;SDS011;3135;42.602;23.468;2024-02-23T10:25:57;0.80;;;0.80;;
6203;SDS011;3135;42.602;23.468;2024-02-23T10:28:22;1.23;;;0.90;;
6203;SDS011;3135;42.602;23.468;2024-02-23T10:30:48;2.57;;;1.00;;
6203;SDS011;3135;42.602;23.468;2024-02-23T10:33:13;1.90;;;1.27;;
6203;SDS011;3135;42.602;23.468;2024-02-23T10:35:39;1.40;;;0.83;;
6203;SDS011;3135;42.602;23.468;2024-02-23T10:38:08;1.35;;;1.17;;
6203;SDS011;3135;42.602;23.468;2024-02-23T10:40:38;1.60;;;1.50;;
6203;SDS011;3135;42.602;23.468;2024-02-23T10:43:07;2.22;;;1.40;;
6203;SDS011;3135;42.602;23.468;2024-02-23T10:45:38;3.00;;;1.10;;
6203;SDS011;3135;42.602;23.468;2024-02-23T10:48:06;2.37;;;0.97;;
6203;SDS011;3135;42.602;23.468;2024-02-23T10:50:34;1.10;;;0.97;;
6203;SDS011;3135;42.602;23.468;2024-02-23T10:53:01;1.00;;;0.90;;
6203;SDS011;3135;42.602;23.468;2024-02-23T10:55:28;0.95;;;0.95;;
6203;SDS011;3135;42.602;23.468;2024-02-23T10:57:56;0.80;;;0.80;;
6203;SDS011;3135;42.602;23.468;2024-02-23T11:00:23;1.90;;;1.00;;
6203;SDS011;3135;42.602;23.468;2024-02-23T11:02:51;1.33;;;1.00;;
6203;SDS011;3135;42.602;23.468;2024-02-23T11:05:18;1.90;;;1.00;;
6203;SDS011;3135;42.602;23.468;2024-02-23T11:07:47;1.13;;;1.03;;
6203;SDS011;3135;42.602;23.468;2024-02-23T11:10:16;0.90;;;0.90;;
6203;SDS011;3135;42.602;23.468;2024-02-23T11:12:44;1.10;;;1.00;;
6203;SDS011;3135;42.602;23.468;2024-02-23T11:15:09;1.00;;;1.00;;
6203;SDS011;3135;42.602;23.468;2024-02-23T11:17:51;1.10;;;1.00;;
6203;SDS011;3135;42.602;23.468;2024-02-23T11:20:17;2.20;;;1.10;;
6203;SDS011;3135;42.602;23.468;2024-02-23T11:22:42;1.50;;;0.90;;
6203;SDS011;3135;42.602;23.468;2024-02-23T11:25:08;0.80;;;0.80;;
6203;SDS011;3135;42.602;23.468;2024-02-23T11:27:35;0.80;;;0.80;;
6203;SDS011;3135;42.602;23.468;2024-02-23T11:30:02;1.00;;;0.90;;
6203;SDS011;3135;42.602;23.468;2024-02-23T11:32:46;2.60;;;1.27;;
6203;SDS011;3135;42.602;23.468;2024-02-23T11:35:14;1.42;;;1.27;;
6203;SDS011;3135;42.602;23.468;2024-02-23T11:37:45;1.50;;;1.20;;
6203;SDS011;3135;42.602;23.468;2024-02-23T11:40:11;1.00;;;1.00;;
6203;SDS011;3135;42.602;23.468;2024-02-23T11:42:38;1.70;;;1.02;;
6203;SDS011;3135;42.602;23.468;2024-02-23T11:45:06;3.72;;;1.27;;
6203;SDS011;3135;42.602;23.468;2024-02-23T11:47:32;1.40;;;1.10;;
6203;SDS011;3135;42.602;23.468;2024-02-23T11:49:57;1.20;;;1.00;;
6203;SDS011;3135;42.602;23.468;2024-02-23T11:52:23;38.37;;;12.47;;
6203;SDS011;3135;42.602;23.468;2024-02-23T11:54:48;1.00;;;1.00;;
6203;SDS011;3135;42.602;23.468;2024-02-23T11:57:14;1.17;;;1.07;;
6203;SDS011;3135;42.602;23.468;2024-02-23T11:59:40;1.10;;;1.10;;
6203;SDS011;3135;42.602;23.468;2024-02-23T12:02:06;1.20;;;1.10;;
6203;SDS011;3135;42.602;23.468;2024-02-23T12:04:32;1.20;;;1.10;;
6203;SDS011;3135;42.602;23.468;2024-02-23T12:06:58;1.00;;;0.95;;
6203;SDS011;3135;42.602;23.468;2024-02-23T12:09:23;1.83;;;1.73;;
6203;SDS011;3135;42.602;23.468;2024-02-23T12:11:49;1.13;;;0.90;;
6203;SDS011;3135;42.602;23.468;2024-02-23T12:14:15;2.00;;;0.80;;
6203;SDS011;3135;42.602;23.468;2024-02-23T12:16:41;0.98;;;0.93;;
6203;SDS011;3135;42.602;23.468;2024-02-23T12:19:07;1.50;;;0.90;;
6203;SDS011;3135;42.602;23.468;2024-02-23T12:21:34;0.90;;;0.90;;
6203;SDS011;3135;42.602;23.468;2024-02-23T12:24:03;0.83;;;0.80;;
6203;SDS011;3135;42.602;23.468;2024-02-23T12:26:31;1.00;;;0.90;;
6203;SDS011;3135;42.602;23.468;2024-02-23T12:29:00;0.98;;;0.90;;
6203;SDS011;3135;42.602;23.468;2024-02-23T12:31:28;0.90;;;0.90;;
6203;SDS011;3135;42.602;23.468;2024-02-23T12:33:54;1.25;;;1.10;;
6203;SDS011;3135;42.602;23.468;2024-02-23T12:36:22;1.00;;;0.93;;
6203;SDS011;3135;42.602;23.468;2024-02-23T12:38:47;1.10;;;1.00;;
6203;SDS011;3135;42.602;23.468;2024-02-23T12:41:13;0.90;;;0.90;;
6203;SDS011;3135;42.602;23.468;2024-02-23T12:43:38;0.97;;;0.87;;
6203;SDS011;3135;42.602;23.468;2024-02-23T12:46:04;0.98;;;0.95;;
6203;SDS011;3135;42.602;23.468;2024-02-23T12:48:29;1.03;;;0.93;;
6203;SDS011;3135;42.602;23.468;2024-02-23T12:50:55;1.20;;;1.10;;
6203;SDS011;3135;42.602;23.468;2024-02-23T12:55:56;1.05;;;0.95;;
6203;SDS011;3135;42.602;23.468;2024-02-23T12:58:22;1.27;;;1.17;;
6203;SDS011;3135;42.602;23.468;2024-02-23T13:00:47;1.80;;;0.90;;
6203;SDS011;3135;42.602;23.468;2024-02-23T13:03:12;1.00;;;0.90;;
6203;SDS011;3135;42.602;23.468;2024-02-23T13:05:38;4.73;;;2.10;;
6203;SDS011;3135;42.602;23.468;2024-02-23T13:08:03;1.10;;;1.00;;
6203;SDS011;3135;42.602;23.468;2024-02-23T13:10:29;2.13;;;1.10;;
6203;SDS011;3135;42.602;23.468;2024-02-23T13:12:54;1.13;;;1.02;;
6203;SDS011;3135;42.602;23.468;2024-02-23T13:15:20;1.30;;;1.20;;
6203;SDS011;3135;42.602;23.468;2024-02-23T13:17:45;1.90;;;1.50;;
6203;SDS011;3135;42.602;23.468;2024-02-23T13:20:11;1.90;;;1.20;;
6203;SDS011;3135;42.602;23.468;2024-02-23T13:22:37;1.67;;;1.13;;
6203;SDS011;3135;42.602;23.468;2024-02-23T13:25:03;1.70;;;1.30;;
6203;SDS011;3135;42.602;23.468;2024-02-23T13:27:29;1.90;;;1.10;;
6203;SDS011;3135;42.602;23.468;2024-02-23T13:29:55;1.40;;;1.10;;
6203;SDS011;3135;42.602;23.468;2024-02-23T13:32:20;1.17;;;1.07;;
6203;SDS011;3135;42.602;23.468;2024-02-23T13:34:45;1.80;;;1.17;;
6203;SDS011;3135;42.602;23.468;2024-02-23T13:37:11;1.20;;;1.00;;
6203;SDS011;3135;42.602;23.468;2024-02-23T13:39:37;1.20;;;1.10;;
6203;SDS011;3135;42.602;23.468;2024-02-23T13:42:02;1.37;;;1.07;;
6203;SDS011;3135;42.602;23.468;2024-02-23T13:44:30;1.40;;;1.30;;
6203;SDS011;3135;42.602;23.468;2024-02-23T13:46:56;1.35;;;1.10;;
6203;SDS011;3135;42.602;23.468;2024-02-23T13:49:21;1.30;;;1.20;;
6203;SDS011;3135;42.602;23.468;2024-02-23T13:51:47;2.00;;;1.57;;
6203;SDS011;3135;42.602;23.468;2024-02-23T13:54:12;1.57;;;1.17;;
6203;SDS011;3135;42.602;23.468;2024-02-23T13:56:38;2.00;;;1.20;;
6203;SDS011;3135;42.602;23.468;2024-02-23T13:59:03;1.10;;;1.00;;
6203;SDS011;3135;42.602;23.468;2024-02-23T14:01:29;1.27;;;1.10;;
6203;SDS011;3135;42.602;23.468;2024-02-23T14:03:54;1.33;;;1.13;;
6203;SDS011;3135;42.602;23.468;2024-02-23T14:06:20;1.30;;;1.20;;
6203;SDS011;3135;42.602;23.468;2024-02-23T14:08:45;1.20;;;1.10;;
6203;SDS011;3135;42.602;23.468;2024-02-23T14:11:12;2.42;;;1.10;;
6203;SDS011;3135;42.602;23.468;2024-02-23T14:13:38;2.50;;;1.07;;
6203;SDS011;3135;42.602;23.468;2024-02-23T14:16:04;2.10;;;1.20;;
6203;SDS011;3135;42.602;23.468;2024-02-23T14:18:30;2.50;;;2.22;;
6203;SDS011;3135;42.602;23.468;2024-02-23T14:20:57;1.70;;;1.27;;
6203;SDS011;3135;42.602;23.468;2024-02-23T14:23:23;1.67;;;1.20;;
6203;SDS011;3135;42.602;23.468;2024-02-23T14:25:48;1.20;;;1.10;;
6203;SDS011;3135;42.602;23.468;2024-02-23T14:28:13;1.30;;;1.20;;
6203;SDS011;3135;42.602;23.468;2024-02-23T14:30:39;2.33;;;1.23;;
6203;SDS011;3135;42.602;23.468;2024-02-23T14:33:07;3.08;;;1.30;;
6203;SDS011;3135;42.602;23.468;2024-02-23T14:35:33;3.30;;;1.17;;
6203;SDS011;3135;42.602;23.468;2024-02-23T14:37:58;1.60;;;1.50;;
6203;SDS011;3135;42.602;23.468;2024-02-23T14:40:24;1.50;;;1.40;;
6203;SDS011;3135;42.602;23.468;2024-02-23T14:42:49;1.30;;;1.20;;
6203;SDS011;3135;42.602;23.468;2024-02-23T14:45:14;1.90;;;1.50;;
6203;SDS011;3135;42.602;23.468;2024-02-23T14:47:41;1.33;;;1.23;;
6203;SDS011;3135;42.602;23.468;2024-02-23T14:50:09;1.85;;;1.25;;
6203;SDS011;3135;42.602;23.468;2024-02-23T14:52:35;1.33;;;1.20;;
6203;SDS011;3135;42.602;23.468;2024-02-23T14:55:00;2.13;;;1.30;;
6203;SDS011;3135;42.602;23.468;2024-02-23T14:57:26;1.70;;;1.23;;